sensor_id;sensor_type;location;lat;lon;timestamp;pressure;altitude;pressure_sealevel;temperature;humidity
75072;BME280;63651;55.728;38.022;2022-11-20T12:55:21;99926.72;;;16.92;29.81
75072;BME280;63651;55.728;38.022;2022-11-20T13:00:25;99921.84;;;17.17;29.31
75072;BME280;63651;55.728;38.022;2022-11-20T13:10:57;99944.38;;;17.54;28.85
75072;BME280;63651;55.728;38.022;2022-11-20T13:16:06;99953.09;;;17.51;28.45
75072;BME280;63651;55.728;38.022;2022-11-20T13:21:36;99936.88;;;16.50;29.48
75072;BME280;63651;55.728;38.022;2022-11-20T13:26:37;99949.63;;;16.14;29.52
75072;BME280;63651;55.728;38.022;2022-11-20T13:31:44;99945.88;;;15.79;30.40
75072;BME280;63651;55.728;38.022;2022-11-20T13:36:53;99958.75;;;15.53;31.74
75072;BME280;63651;55.728;38.022;2022-11-20T13:41:57;99957.91;;;15.34;31.53
75072;BME280;63651;55.728;38.022;2022-11-20T13:46:58;99974.69;;;15.20;32.35
75072;BME280;63651;55.728;38.022;2022-11-20T13:57:58;99974.75;;;14.88;32.88
75072;BME280;63651;55.728;38.022;2022-11-20T14:08:14;99987.75;;;14.68;33.11
75072;BME280;63651;55.728;38.022;2022-11-20T14:13:20;99977.13;;;14.53;33.45
75072;BME280;63651;55.728;38.022;2022-11-20T14:18:21;99985.31;;;14.53;33.21
75072;BME280;63651;55.728;38.022;2022-11-20T14:23:26;100005.34;;;14.47;33.90
75072;BME280;63651;55.728;38.022;2022-11-20T14:28:29;100007.03;;;14.41;34.10
75072;BME280;63651;55.728;38.022;2022-11-20T14:33:32;99992.94;;;14.38;33.63
75072;BME280;63651;55.728;38.022;2022-11-20T14:38:34;100003.88;;;14.38;33.89
75072;BME280;63651;55.728;38.022;2022-11-20T14:43:36;99982.94;;;14.19;34.20
75072;BME280;63651;55.728;38.022;2022-11-20T14:48:42;100014.19;;;14.29;34.33
75072;BME280;63651;55.728;38.022;2022-11-20T14:53:44;100028.53;;;14.25;34.40
75072;BME280;63651;55.728;38.022;2022-11-20T14:58:55;100033.16;;;14.24;34.40
75072;BME280;63651;55.728;38.022;2022-11-20T15:04:01;100030.22;;;14.19;34.52
75072;BME280;63651;55.728;38.022;2022-11-20T15:09:13;100022.88;;;14.20;34.38
75072;BME280;63651;55.728;38.022;2022-11-20T15:14:15;100029.38;;;14.19;34.70
75072;BME280;63651;55.728;38.022;2022-11-20T15:19:21;100027.31;;;14.14;34.61
75072;BME280;63651;55.728;38.022;2022-11-20T15:24:22;100015.72;;;14.19;34.29
75072;BME280;63651;55.728;38.022;2022-11-20T15:29:23;100025.41;;;14.15;34.51
75072;BME280;63651;55.728;38.022;2022-11-20T15:34:27;100013.03;;;14.12;34.96
75072;BME280;63651;55.728;38.022;2022-11-20T15:39:28;100014.91;;;14.12;34.71
75072;BME280;63651;55.728;38.022;2022-11-20T15:44:29;100014.31;;;14.09;34.68
75072;BME280;63651;55.728;38.022;2022-11-20T15:49:30;100012.84;;;14.07;34.96
75072;BME280;63651;55.728;38.022;2022-11-20T15:54:31;100012.84;;;14.07;34.56
75072;BME280;63651;55.728;38.022;2022-11-20T15:59:32;100011.78;;;14.08;35.11
75072;BME280;63651;55.728;38.022;2022-11-20T16:04:33;100004.44;;;14.08;35.72
75072;BME280;63651;55.728;38.022;2022-11-20T16:09:34;100014.72;;;14.06;35.34
75072;BME280;63651;55.728;38.022;2022-11-20T16:14:35;100033.03;;;14.06;36.36
75072;BME280;63651;55.728;38.022;2022-11-20T16:19:55;100011.38;;;14.04;36.62
75072;BME280;63651;55.728;38.022;2022-11-20T16:24:56;100021.03;;;14.07;36.97
75072;BME280;63651;55.728;38.022;2022-11-20T16:29:57;100025.88;;;14.05;36.97
75072;BME280;63651;55.728;38.022;2022-11-20T16:34:58;100022.09;;;14.06;37.41
75072;BME280;63651;55.728;38.022;2022-11-20T16:39:59;100016.19;;;14.09;37.15
75072;BME280;63651;55.728;38.022;2022-11-20T16:45:00;100002.97;;;14.06;37.26
75072;BME280;63651;55.728;38.022;2022-11-20T16:50:04;99975.34;;;13.83;37.19
75072;BME280;63651;55.728;38.022;2022-11-20T16:55:05;100006.75;;;14.05;37.14
75072;BME280;63651;55.728;38.022;2022-11-20T17:00:07;100013.91;;;14.06;37.12
75072;BME280;63651;55.728;38.022;2022-11-20T17:05:08;100009.28;;;14.06;36.86
75072;BME280;63651;55.728;38.022;2022-11-20T17:10:09;100024.81;;;14.06;36.51
75072;BME280;63651;55.728;38.022;2022-11-20T17:15:10;100021.91;;;14.01;36.49
75072;BME280;63651;55.728;38.022;2022-11-20T17:20:12;100036.19;;;14.03;36.32
75072;BME280;63651;55.728;38.022;2022-11-20T17:25:13;100033.44;;;14.03;36.44
75072;BME280;63651;55.728;38.022;2022-11-20T17:30:14;100021.25;;;14.05;36.24
75072;BME280;63651;55.728;38.022;2022-11-20T17:35:15;100003.63;;;14.01;36.45
75072;BME280;63651;55.728;38.022;2022-11-20T17:40:16;100026.13;;;13.97;36.15
75072;BME280;63651;55.728;38.022;2022-11-20T17:45:17;100019.78;;;14.03;36.69
75072;BME280;63651;55.728;38.022;2022-11-20T17:50:18;100039.97;;;14.02;36.54
75072;BME280;63651;55.728;38.022;2022-11-20T17:55:19;100031.16;;;14.00;36.50
75072;BME280;63651;55.728;38.022;2022-11-20T18:00:21;100024.19;;;14.04;36.25
75072;BME280;63651;55.728;38.022;2022-11-20T18:05:22;100041.03;;;14.01;36.30
75072;BME280;63651;55.728;38.022;2022-11-20T18:10:23;100044.16;;;14.04;36.10
75072;BME280;63651;55.728;38.022;2022-11-20T18:15:24;100030.31;;;13.99;36.02
75072;BME280;63651;55.728;38.022;2022-11-20T18:20:25;100015.38;;;14.02;35.83
75072;BME280;63651;55.728;38.022;2022-11-20T18:25:27;100016.44;;;14.01;36.08
75072;BME280;63651;55.728;38.022;2022-11-20T18:30:28;100017.91;;;13.97;36.07
75072;BME280;63651;55.728;38.022;2022-11-20T18:35:29;100009.72;;;13.97;36.41
75072;BME280;63651;55.728;38.022;2022-11-20T18:40:30;100040.59;;;14.04;36.10
75072;BME280;63651;55.728;38.022;2022-11-20T18:45:32;100041.84;;;14.01;36.06
75072;BME280;63651;55.728;38.022;2022-11-20T18:50:33;100038.53;;;13.93;35.96
75072;BME280;63651;55.728;38.022;2022-11-20T18:55:34;100043.13;;;13.99;35.89
75072;BME280;63651;55.728;38.022;2022-11-20T19:00:35;100048.38;;;14.00;36.05
75072;BME280;63651;55.728;38.022;2022-11-20T19:05:36;100049.22;;;14.01;35.87
75072;BME280;63651;55.728;38.022;2022-11-20T19:10:38;100040.41;;;13.99;35.60
75072;BME280;63651;55.728;38.022;2022-11-20T19:15:39;100031.59;;;13.97;35.44
75072;BME280;63651;55.728;38.022;2022-11-20T19:20:40;100042.28;;;13.98;35.50
75072;BME280;63651;55.728;38.022;2022-11-20T19:25:41;100018.75;;;13.97;35.76
75072;BME280;63651;55.728;38.022;2022-11-20T19:30:43;100009.50;;;13.98;35.40
75072;BME280;63651;55.728;38.022;2022-11-20T19:35:44;100010.78;;;13.96;35.31
75072;BME280;63651;55.728;38.022;2022-11-20T19:40:45;99986.03;;;13.91;35.53
75072;BME280;63651;55.728;38.022;2022-11-20T19:45:46;99996.13;;;13.84;35.44
75072;BME280;63651;55.728;38.022;2022-11-20T19:50:47;99996.34;;;13.82;35.34
75072;BME280;63651;55.728;38.022;2022-11-20T19:55:56;100017.75;;;13.85;35.16
75072;BME280;63651;55.728;38.022;2022-11-20T20:01:11;99996.38;;;13.69;35.14
75072;BME280;63651;55.728;38.022;2022-11-20T20:06:18;99997.22;;;13.76;35.32
75072;BME280;63651;55.728;38.022;2022-11-20T20:11:21;100008.31;;;13.81;35.26
75072;BME280;63651;55.728;38.022;2022-11-20T20:16:24;100001.41;;;13.78;35.33
75072;BME280;63651;55.728;38.022;2022-11-20T20:21:26;100012.53;;;13.77;35.34
75072;BME280;63651;55.728;38.022;2022-11-20T20:26:29;100006.47;;;13.68;34.96
75072;BME280;63651;55.728;38.022;2022-11-20T20:31:31;100037.94;;;13.77;35.29
75072;BME280;63651;55.728;38.022;2022-11-20T20:36:33;100046.13;;;13.77;35.53
75072;BME280;63651;55.728;38.022;2022-11-20T20:41:34;100042.78;;;13.75;35.24
75072;BME280;63651;55.728;38.022;2022-11-20T20:46:35;100039.00;;;13.76;35.46
75072;BME280;63651;55.728;38.022;2022-11-20T20:51:36;100049.09;;;13.76;35.26
75072;BME280;63651;55.728;38.022;2022-11-20T20:56:38;100037.09;;;13.77;34.99
75072;BME280;63651;55.728;38.022;2022-11-20T21:01:39;100025.78;;;13.73;34.93
75072;BME280;63651;55.728;38.022;2022-11-20T21:06:40;100033.97;;;13.73;34.76
75072;BME280;63651;55.728;38.022;2022-11-20T21:11:41;100046.78;;;13.73;35.13
75072;BME280;63651;55.728;38.022;2022-11-20T21:16:42;100044.88;;;13.73;35.48
75072;BME280;63651;55.728;38.022;2022-11-20T21:21:43;100048.47;;;13.74;35.33
75072;BME280;63651;55.728;38.022;2022-11-20T21:27:02;100033.78;;;13.62;35.36
75072;BME280;63651;55.728;38.022;2022-11-20T21:32:03;100034.81;;;13.67;35.50
75072;BME280;63651;55.728;38.022;2022-11-20T21:37:04;100039.00;;;13.70;35.17
75072;BME280;63651;55.728;38.022;2022-11-20T21:42:05;100043.22;;;13.72;35.04
75072;BME280;63651;55.728;38.022;2022-11-20T21:47:06;100049.72;;;13.71;35.15
75072;BME280;63651;55.728;38.022;2022-11-20T21:52:08;100048.03;;;13.70;35.35
75072;BME280;63651;55.728;38.022;2022-11-20T21:57:09;100029.78;;;13.71;35.22
75072;BME280;63651;55.728;38.022;2022-11-20T22:02:11;100014.44;;;13.70;34.95
75072;BME280;63651;55.728;38.022;2022-11-20T22:07:12;100035.84;;;13.73;35.02
75072;BME280;63651;55.728;38.022;2022-11-20T22:12:13;100024.75;;;13.68;35.38
75072;BME280;63651;55.728;38.022;2022-11-20T22:17:14;100018.03;;;13.64;35.20
75072;BME280;63651;55.728;38.022;2022-11-20T22:22:15;100022.41;;;13.71;35.21
75072;BME280;63651;55.728;38.022;2022-11-20T22:27:16;100026.63;;;13.67;35.16
75072;BME280;63651;55.728;38.022;2022-11-20T22:32:17;100033.56;;;13.70;35.28
75072;BME280;63651;55.728;38.022;2022-11-20T22:37:18;100041.13;;;13.68;34.97
75072;BME280;63651;55.728;38.022;2022-11-20T22:42:19;100031.03;;;13.68;35.12
75072;BME280;63651;55.728;38.022;2022-11-20T22:47:20;100017.38;;;13.68;35.05
75072;BME280;63651;55.728;38.022;2022-11-20T22:52:21;100027.47;;;13.68;35.01
75072;BME280;63651;55.728;38.022;2022-11-20T22:57:22;100027.25;;;13.69;35.03
75072;BME280;63651;55.728;38.022;2022-11-20T23:02:23;100019.91;;;13.70;35.08
75072;BME280;63651;55.728;38.022;2022-11-20T23:07:24;100009.63;;;13.65;35.24
75072;BME280;63651;55.728;38.022;2022-11-20T23:12:25;100011.09;;;13.68;34.89
75072;BME280;63651;55.728;38.022;2022-11-20T23:17:26;100008.78;;;13.71;35.13
75072;BME280;63651;55.728;38.022;2022-11-20T23:22:27;100009.41;;;13.67;34.99
75072;BME280;63651;55.728;38.022;2022-11-20T23:27:28;99998.06;;;13.70;35.03
75072;BME280;63651;55.728;38.022;2022-11-20T23:32:29;99991.56;;;13.71;34.90
75072;BME280;63651;55.728;38.022;2022-11-20T23:37:30;100005.41;;;13.69;34.48
75072;BME280;63651;55.728;38.022;2022-11-20T23:42:31;99997.44;;;13.68;35.12
75072;BME280;63651;55.728;38.022;2022-11-20T23:47:32;100000.38;;;13.66;34.75
75072;BME280;63651;55.728;38.022;2022-11-20T23:52:33;99994.50;;;13.69;34.98
75072;BME280;63651;55.728;38.022;2022-11-20T23:57:34;99981.28;;;13.66;35.11
